Avenal, CA

3:17 PM PDT on September 22, 2014 (GMT -0700)
KCACOALI4 | Change Station
CLOSE
Current Station
Personal Weather Station
Location: Coalinga, CA
Elevation: 682 ft
Nearby Weather Stations

Elev 682 ft 36.15 °N, 120.37 °W | Updated 2 seconds ago

Clear
Clear
96.6 °F
Feels Like 96 °F
N
0.7
Wind Variable Wind from North
Gusts 6.9 mph

Today
High -- | Low -- °F
--% Chance of Precip.
Yesterday
High -- | Low -- °F
Precip. -- in
6:48 AM 6:57 PM
Waning Crescent, 2% visible
Pressure 29.91 in
Visibility 10.0 miles
Clouds Clear
Heat Index 96 °F
Dew Point 57 °F
Humidity 27%
Rainfall 0.00 in
Snow Depth 3 in , 0 in , 0 in
UV 6 out of 12
Pollen 6.00 out of 12
Ozone Good
Flu Activity Not available.
METAR KNLC 222156Z 01006KT 10SM CLR 32/12 A2992 RMK AO2 SLP129 RH/30 T03170122

More Conditions Fewer Conditions

Pressure 29.91 in
Visibility 10.0 miles
Clouds Clear
Heat Index 96 °F
Dew Point 57 °F
Humidity 27%
Rainfall 0.00 in
Snow Depth 3 in , 0 in , 0 in
UV 6 out of 12
Pollen 6.00 out of 12
Ozone Good
Flu Activity Not available.
METAR KNLC 222156Z 01006KT 10SM CLR 32/12 A2992 RMK AO2 SLP129 RH/30 T03170122

More Conditions Fewer Conditions

10-Day Weather Forecast

Almanac

Astronomy

Sep. 22, 2014 Rise Set
Actual Time 6:48 AM PDT 6:57 PM PDT
Civil Twilight 6:22 AM PDT 7:22 PM PDT
Nautical Twilight 5:53 AM PDT 7:52 PM PDT
Astronomical Twilight 5:22 AM PDT 8:22 PM PDT
Moon 5:23 AM PDT 6:06 PM PDT
Length of Visible Light 12h 59m
Length of Day
12h 08m
Tomorrow will be 2m 16s shorter.
Waning Crescent, 2% of the Moon is Illuminated
Today
Waning Crescent
Sep 24
New
Oct 1
First Quarter
Oct 8
Full
Oct 15
Last Quarter

Today's Extremes

State Highs State Lows

Community

WunderPhotos

Upload Photos

1,755,539 photos uploaded!

Nearby

Air Quality

  Air Quality AQ Index Pollutant
Yesterday Good
OZONE
Yesterday Good
PM10
Current Good
OZONE
Monday Moderate
OZONE
Tuesday Moderate
OZONE
Wednesday Moderate
OZONE
Thursday Moderate
OZONE
Friday Moderate
OZONE
Saturday Moderate
OZONE

Snow Depth

Station Depth Elevation
CSS Lab 3 in 6900 ft
Rubicon #2 0 in 7500 ft
Leavitt Meadows 0 in 7200 ft
Summit Meadow 0 in 9122 ft
Adin Mountain 0 in 6200 ft

Earthquake Activity

City Distance Mag. Time & Date
Livermore, California 145 miles 2.6 3:37 AM PDT
2014-09-19
Minimum magnitude displayed is 2.5.

Coastal Water Temperatures

Place Temperature
No Stations Reporting

Nearby Weather Stations